CMA CGM Racine — 9HA2362 — position and weather

sailwx.info

Track history (hours):
 
Tides and Currents Weather Stations Pressure Air Temp Water Temp Dewpoint Dewpoint Depression Visibility Wind Speed Wind Dir Waves Ship Positions

CMA CGM Racine

Last reported at 2018-Jun-17 14:44 UTC. Time now 2018-Jun-19 04:46 UTC.
Position N 34°58' E 128°49'.

Length 300 m; draft 7.6 m.

Type: Ship (hazmat cat A). MMSI: 248431000.

Date/timePositionNaut miles runAvg speedWind from/ knotsBaromVisibWave heightAir tempDewpointWater temp
2018-Jun-17 14:44N 34°58' E 128°49'  
2018-Jun-14 23:40N 30°34' E 122°11'317.0
2018-Jun-14 23:28N 30°35' E 122°08'3 6.5
2018-Jun-14 22:59N 30°37' E 122°05'0 0.0
2018-Jun-14 21:46N 30°37' E 122°05'0 0.0
2018-Jun-14 11:21N 30°37' E 122°05'0 0.5
2018-Jun-14 10:48N 30°37' E 122°04'1 3.9
2018-Jun-14 10:28N 30°36' E 122°06'27 0.8
2018-Jun-12 23:20N 30°26' E 122°35'0 0.2
2018-Jun-12 22:44N 30°26' E 122°35'0 0.1
2018-Jun-12 22:17N 30°26' E 122°35'0 0.0
2018-Jun-12 09:35N 30°26' E 122°35'0 0.3
2018-Jun-12 09:23N 30°26' E 122°35'0 0.1
2018-Jun-12 08:59N 30°26' E 122°35'0 0.1
2018-Jun-12 08:26N 30°26' E 122°35'0 0.1
2018-Jun-12 07:59N 30°26' E 122°35'0 0.0
2018-Jun-12 07:29N 30°26' E 122°35'0 0.0
2018-Jun-12 06:59N 30°26' E 122°35'0 0.0
2018-Jun-12 06:23N 30°26' E 122°35'0 0.0
2018-Jun-12 05:53N 30°26' E 122°35'0 0.0
2018-Jun-11 23:23N 30°26' E 122°35'0 0.1
2018-Jun-11 21:44N 30°26' E 122°35'0 0.2
2018-Jun-11 21:29N 30°26' E 122°35'0 0.0
2018-Jun-11 20:56N 30°26' E 122°35'0 0.1
2018-Jun-11 20:08N 30°26' E 122°35'0 0.1
2018-Jun-11 19:53N 30°26' E 122°35'0 0.0
2018-Jun-11 19:02N 30°26' E 122°35'0 0.2
2018-Jun-11 18:44N 30°26' E 122°36'0 0.2
2018-Jun-11 18:29N 30°26' E 122°35'0 0.1
2018-Jun-11 17:56N 30°26' E 122°36'0 0.0
2018-Jun-11 17:29N 30°26' E 122°36'0 0.0
2018-Jun-11 16:53N 30°26' E 122°36'0 0.0
2018-Jun-11 15:53N 30°26' E 122°36'  
Track history (hours):
 
Tides and Currents Weather Stations Pressure Air Temp Water Temp Dewpoint Dewpoint Depression Visibility Wind Speed Wind Dir Waves Ship Positions

CMA CGM Racine

Last reported at 2018-Jun-17 14:44 UTC. Time now 2018-Jun-19 04:46 UTC.
Position N 34°58' E 128°49'.

Length 300 m; draft 7.6 m.

Type: Ship (hazmat cat A). MMSI: 248431000.

Date/timePositionNaut miles runAvg speedWind from/ knotsBaromVisibWave heightAir tempDewpointWater temp
2018-Jun-17 14:44N 34°58' E 128°49'  
2018-Jun-14 23:40N 30°34' E 122°11'317.0
2018-Jun-14 23:28N 30°35' E 122°08'3 6.5
2018-Jun-14 22:59N 30°37' E 122°05'0 0.0
2018-Jun-14 21:46N 30°37' E 122°05'0 0.0
2018-Jun-14 11:21N 30°37' E 122°05'0 0.5
2018-Jun-14 10:48N 30°37' E 122°04'1 3.9
2018-Jun-14 10:28N 30°36' E 122°06'27 0.8
2018-Jun-12 23:20N 30°26' E 122°35'0 0.2
2018-Jun-12 22:44N 30°26' E 122°35'0 0.1
2018-Jun-12 22:17N 30°26' E 122°35'0 0.0
2018-Jun-12 09:35N 30°26' E 122°35'0 0.3
2018-Jun-12 09:23N 30°26' E 122°35'0 0.1
2018-Jun-12 08:59N 30°26' E 122°35'0 0.1
2018-Jun-12 08:26N 30°26' E 122°35'0 0.1
2018-Jun-12 07:59N 30°26' E 122°35'0 0.0
2018-Jun-12 07:29N 30°26' E 122°35'0 0.0
2018-Jun-12 06:59N 30°26' E 122°35'0 0.0
2018-Jun-12 06:23N 30°26' E 122°35'0 0.0
2018-Jun-12 05:53N 30°26' E 122°35'0 0.0
2018-Jun-11 23:23N 30°26' E 122°35'0 0.1
2018-Jun-11 21:44N 30°26' E 122°35'0 0.2
2018-Jun-11 21:29N 30°26' E 122°35'0 0.0
2018-Jun-11 20:56N 30°26' E 122°35'0 0.1
2018-Jun-11 20:08N 30°26' E 122°35'0 0.1
2018-Jun-11 19:53N 30°26' E 122°35'0 0.0
2018-Jun-11 19:02N 30°26' E 122°35'0 0.2
2018-Jun-11 18:44N 30°26' E 122°36'0 0.2
2018-Jun-11 18:29N 30°26' E 122°35'0 0.1
2018-Jun-11 17:56N 30°26' E 122°36'0 0.0
2018-Jun-11 17:29N 30°26' E 122°36'0 0.0
2018-Jun-11 16:53N 30°26' E 122°36'0 0.0
2018-Jun-11 15:53N 30°26' E 122°36'  

Dump ship's entire track history